Vano — SBNM — position and weather

sailwx.info

Track history (hours):
 
Tides and Currents Weather Stations Pressure Air Temp Water Temp Dewpoint Dewpoint Depression Visibility Wind Speed Wind Dir Waves Ship Positions

Vano

Last reported at 2015-Jul-01 15:16 UTC. Time now 2015-Jul-01 23:11 UTC.
Position N 59°19' E 018°07'.

Length 38 m; draft 1.8 m.

Type: Passenger vessel. MMSI: 265520400.

Date/timePositionNaut miles runAvg speedWind from/ knotsBaromVisibWave heightAir tempDewpointWater temp
2015-Jul-01 15:16N 59°19' E 018°07'1 2.0
2015-Jul-01 14:33N 59°20' E 018°05'8 6.1
2015-Jul-01 13:15N 59°23' E 018°19'0 0.1
2015-Jul-01 07:16N 59°23' E 018°20'811.7
2015-Jul-01 06:33N 59°20' E 018°05'0 0.2
2015-Jul-01 05:33N 59°20' E 018°05'0 0.0
2015-Jul-01 04:33N 59°20' E 018°05'0 0.0
2015-Jul-01 03:33N 59°20' E 018°05'0 0.0
2015-Jul-01 02:33N 59°20' E 018°05'0 0.0
2015-Jul-01 01:34N 59°20' E 018°05'0 0.0
2015-Jul-01 00:33N 59°20' E 018°05'0 0.0
2015-Jun-30 23:33N 59°20' E 018°05'0 0.0
2015-Jun-30 22:33N 59°20' E 018°05'0 0.0
2015-Jun-30 21:33N 59°20' E 018°05'0 0.0
2015-Jun-30 20:33N 59°20' E 018°05'0 0.1
2015-Jun-30 14:33N 59°19' E 018°05'0 0.4
2015-Jun-30 13:33N 59°20' E 018°05'0 0.0
2015-Jun-30 12:34N 59°20' E 018°05'0 0.0
2015-Jun-30 11:33N 59°20' E 018°05'0 0.0
2015-Jun-30 10:33N 59°20' E 018°05'0 0.0
2015-Jun-30 09:33N 59°20' E 018°05'0 0.0
2015-Jun-30 08:33N 59°20' E 018°05'0 0.0
2015-Jun-29 13:32N 59°20' E 018°05'0 0.0
2015-Jun-29 07:33N 59°20' E 018°05'0 0.0
2015-Jun-29 06:33N 59°20' E 018°05'1 0.1
2015-Jun-28 19:34N 59°19' E 018°05'1 0.1
2015-Jun-28 13:11N 59°19' E 018°07'1 2.3
2015-Jun-28 12:33N 59°20' E 018°04'2 0.4
2015-Jun-28 08:14N 59°19' E 018°07'2 2.4
2015-Jun-28 07:33N 59°20' E 018°05'0 0.0
2015-Jun-28 06:33N 59°20' E 018°04'0 0.0
2015-Jun-28 05:33N 59°20' E 018°04'0 0.0
2015-Jun-28 04:33N 59°20' E 018°05'0 0.0
2015-Jun-28 03:33N 59°20' E 018°05'0 0.0
2015-Jun-28 02:33N 59°20' E 018°05'0 0.0
2015-Jun-28 01:33N 59°20' E 018°05'0 0.0
2015-Jun-28 00:33N 59°20' E 018°05'0 0.0
2015-Jun-27 23:33N 59°20' E 018°05'0 0.0
2015-Jun-27 22:33N 59°20' E 018°05'0 0.0
2015-Jun-27 21:33N 59°20' E 018°05'0 0.0
2015-Jun-27 20:33N 59°20' E 018°05'0 0.0
2015-Jun-27 19:33N 59°20' E 018°05'0 0.0
2015-Jun-27 18:33N 59°20' E 018°05'0 0.0
2015-Jun-27 17:33N 59°20' E 018°05'0 0.0
2015-Jun-27 16:33N 59°20' E 018°05'0 0.0
2015-Jun-27 06:33N 59°19' E 018°05'0 0.3
2015-Jun-27 05:33N 59°20' E 018°05'0 0.0
2015-Jun-27 04:33N 59°20' E 018°05'0 0.0
2015-Jun-27 03:34N 59°20' E 018°05'0 0.0
2015-Jun-27 02:33N 59°20' E 018°05'0 0.0
2015-Jun-27 01:33N 59°20' E 018°05'0 0.0
2015-Jun-27 00:34N 59°20' E 018°05'0 0.0
2015-Jun-26 23:34N 59°20' E 018°05'0 0.0
2015-Jun-26 22:33N 59°20' E 018°05'0 0.0
2015-Jun-26 21:33N 59°20' E 018°05'0 0.0
2015-Jun-26 20:33N 59°20' E 018°05'0 0.0
2015-Jun-26 14:32N 59°20' E 018°05'0 0.2
2015-Jun-26 13:33N 59°20' E 018°05'4 0.6
2015-Jun-26 06:26N 59°20' E 018°12'4 4.6
2015-Jun-26 05:34N 59°20' E 018°04'0 0.0
2015-Jun-26 04:34N 59°20' E 018°04'0 0.0
2015-Jun-26 03:34N 59°20' E 018°04'0 0.0
2015-Jun-26 02:33N 59°20' E 018°04'0 0.0
2015-Jun-26 01:34N 59°20' E 018°04'0 0.0
2015-Jun-26 00:34N 59°20' E 018°04'0 0.0
2015-Jun-25 23:34N 59°20' E 018°04'0 0.0
2015-Jun-25 22:33N 59°20' E 018°04'0 0.0
2015-Jun-25 21:34N 59°20' E 018°04'0 0.0
2015-Jun-25 20:33N 59°20' E 018°04'0 0.0
2015-Jun-25 19:34N 59°20' E 018°04'0 0.0
2015-Jun-25 18:33N 59°20' E 018°04'0 0.0
2015-Jun-25 17:34N 59°20' E 018°04'0 0.0
2015-Jun-25 09:33N 59°19' E 018°05'0 0.3
2015-Jun-25 08:33N 59°20' E 018°05'3 0.2
2015-Jun-24 15:24N 59°19' E 018°10'3 3.3
2015-Jun-24 14:34N 59°20' E 018°05'0 0.0
2015-Jun-24 06:32N 59°20' E 018°05'0 0.2
2015-Jun-24 05:33N 59°20' E 018°05'0 0.0
2015-Jun-24 04:34N 59°20' E 018°05'0 0.0
2015-Jun-24 03:34N 59°20' E 018°05'0 0.0
2015-Jun-24 02:33N 59°20' E 018°05'0 0.0
2015-Jun-24 01:34N 59°20' E 018°05'0 0.0
2015-Jun-24 00:34N 59°20' E 018°05'0 0.0
2015-Jun-23 23:34N 59°20' E 018°05'0 0.0
2015-Jun-23 22:34N 59°20' E 018°05'0 0.0
2015-Jun-23 21:34N 59°20' E 018°05'0 0.0
2015-Jun-23 20:34N 59°20' E 018°05'0 0.0
2015-Jun-22 13:32N 59°20' E 018°05'0 0.0
2015-Jun-22 07:34N 59°20' E 018°05'0 0.0
2015-Jun-22 06:34N 59°20' E 018°05'1 0.1
2015-Jun-21 19:33N 59°19' E 018°06'  
Track history (hours):
 
Tides and Currents Weather Stations Pressure Air Temp Water Temp Dewpoint Dewpoint Depression Visibility Wind Speed Wind Dir Waves Ship Positions

Vano

Last reported at 2015-Jul-01 15:16 UTC. Time now 2015-Jul-01 23:11 UTC.
Position N 59°19' E 018°07'.

Length 38 m; draft 1.8 m.

Type: Passenger vessel. MMSI: 265520400.

Date/timePositionNaut miles runAvg speedWind from/ knotsBaromVisibWave heightAir tempDewpointWater temp
2015-Jul-01 15:16N 59°19' E 018°07'1 2.0
2015-Jul-01 14:33N 59°20' E 018°05'8 6.1
2015-Jul-01 13:15N 59°23' E 018°19'0 0.1
2015-Jul-01 07:16N 59°23' E 018°20'811.7
2015-Jul-01 06:33N 59°20' E 018°05'0 0.2
2015-Jul-01 05:33N 59°20' E 018°05'0 0.0
2015-Jul-01 04:33N 59°20' E 018°05'0 0.0
2015-Jul-01 03:33N 59°20' E 018°05'0 0.0
2015-Jul-01 02:33N 59°20' E 018°05'0 0.0
2015-Jul-01 01:34N 59°20' E 018°05'0 0.0
2015-Jul-01 00:33N 59°20' E 018°05'0 0.0
2015-Jun-30 23:33N 59°20' E 018°05'0 0.0
2015-Jun-30 22:33N 59°20' E 018°05'0 0.0
2015-Jun-30 21:33N 59°20' E 018°05'0 0.0
2015-Jun-30 20:33N 59°20' E 018°05'0 0.1
2015-Jun-30 14:33N 59°19' E 018°05'0 0.4
2015-Jun-30 13:33N 59°20' E 018°05'0 0.0
2015-Jun-30 12:34N 59°20' E 018°05'0 0.0
2015-Jun-30 11:33N 59°20' E 018°05'0 0.0
2015-Jun-30 10:33N 59°20' E 018°05'0 0.0
2015-Jun-30 09:33N 59°20' E 018°05'0 0.0
2015-Jun-30 08:33N 59°20' E 018°05'0 0.0
2015-Jun-29 13:32N 59°20' E 018°05'0 0.0
2015-Jun-29 07:33N 59°20' E 018°05'0 0.0
2015-Jun-29 06:33N 59°20' E 018°05'1 0.1
2015-Jun-28 19:34N 59°19' E 018°05'1 0.1
2015-Jun-28 13:11N 59°19' E 018°07'1 2.3
2015-Jun-28 12:33N 59°20' E 018°04'2 0.4
2015-Jun-28 08:14N 59°19' E 018°07'2 2.4
2015-Jun-28 07:33N 59°20' E 018°05'0 0.0
2015-Jun-28 06:33N 59°20' E 018°04'0 0.0
2015-Jun-28 05:33N 59°20' E 018°04'0 0.0
2015-Jun-28 04:33N 59°20' E 018°05'0 0.0
2015-Jun-28 03:33N 59°20' E 018°05'0 0.0
2015-Jun-28 02:33N 59°20' E 018°05'0 0.0
2015-Jun-28 01:33N 59°20' E 018°05'0 0.0
2015-Jun-28 00:33N 59°20' E 018°05'0 0.0
2015-Jun-27 23:33N 59°20' E 018°05'0 0.0
2015-Jun-27 22:33N 59°20' E 018°05'0 0.0
2015-Jun-27 21:33N 59°20' E 018°05'0 0.0
2015-Jun-27 20:33N 59°20' E 018°05'0 0.0
2015-Jun-27 19:33N 59°20' E 018°05'0 0.0
2015-Jun-27 18:33N 59°20' E 018°05'0 0.0
2015-Jun-27 17:33N 59°20' E 018°05'0 0.0
2015-Jun-27 16:33N 59°20' E 018°05'0 0.0
2015-Jun-27 06:33N 59°19' E 018°05'0 0.3
2015-Jun-27 05:33N 59°20' E 018°05'0 0.0
2015-Jun-27 04:33N 59°20' E 018°05'0 0.0
2015-Jun-27 03:34N 59°20' E 018°05'0 0.0
2015-Jun-27 02:33N 59°20' E 018°05'0 0.0
2015-Jun-27 01:33N 59°20' E 018°05'0 0.0
2015-Jun-27 00:34N 59°20' E 018°05'0 0.0
2015-Jun-26 23:34N 59°20' E 018°05'0 0.0
2015-Jun-26 22:33N 59°20' E 018°05'0 0.0
2015-Jun-26 21:33N 59°20' E 018°05'0 0.0
2015-Jun-26 20:33N 59°20' E 018°05'0 0.0
2015-Jun-26 14:32N 59°20' E 018°05'0 0.2
2015-Jun-26 13:33N 59°20' E 018°05'4 0.6
2015-Jun-26 06:26N 59°20' E 018°12'4 4.6
2015-Jun-26 05:34N 59°20' E 018°04'0 0.0
2015-Jun-26 04:34N 59°20' E 018°04'0 0.0
2015-Jun-26 03:34N 59°20' E 018°04'0 0.0
2015-Jun-26 02:33N 59°20' E 018°04'0 0.0
2015-Jun-26 01:34N 59°20' E 018°04'0 0.0
2015-Jun-26 00:34N 59°20' E 018°04'0 0.0
2015-Jun-25 23:34N 59°20' E 018°04'0 0.0
2015-Jun-25 22:33N 59°20' E 018°04'0 0.0
2015-Jun-25 21:34N 59°20' E 018°04'0 0.0
2015-Jun-25 20:33N 59°20' E 018°04'0 0.0
2015-Jun-25 19:34N 59°20' E 018°04'0 0.0
2015-Jun-25 18:33N 59°20' E 018°04'0 0.0
2015-Jun-25 17:34N 59°20' E 018°04'0 0.0
2015-Jun-25 09:33N 59°19' E 018°05'0 0.3
2015-Jun-25 08:33N 59°20' E 018°05'3 0.2
2015-Jun-24 15:24N 59°19' E 018°10'3 3.3
2015-Jun-24 14:34N 59°20' E 018°05'0 0.0
2015-Jun-24 06:32N 59°20' E 018°05'0 0.2
2015-Jun-24 05:33N 59°20' E 018°05'0 0.0
2015-Jun-24 04:34N 59°20' E 018°05'0 0.0
2015-Jun-24 03:34N 59°20' E 018°05'0 0.0
2015-Jun-24 02:33N 59°20' E 018°05'0 0.0
2015-Jun-24 01:34N 59°20' E 018°05'0 0.0
2015-Jun-24 00:34N 59°20' E 018°05'0 0.0
2015-Jun-23 23:34N 59°20' E 018°05'0 0.0
2015-Jun-23 22:34N 59°20' E 018°05'0 0.0
2015-Jun-23 21:34N 59°20' E 018°05'0 0.0
2015-Jun-23 20:34N 59°20' E 018°05'0 0.0
2015-Jun-22 13:32N 59°20' E 018°05'0 0.0
2015-Jun-22 07:34N 59°20' E 018°05'0 0.0
2015-Jun-22 06:34N 59°20' E 018°05'1 0.1
2015-Jun-21 19:33N 59°19' E 018°06'  

Dump ship's entire track history